Terminal Aerodrome Forecast
Issued by NWS

Home | Current Version | Previous Version | Graphics & Text | Print | Product List | Glossary On
Versions: 1 2 3 4 5 6 7 8 9 10 11 12 13 14 15 16 17 18 19
000
FTUS43 KMPX 282344
TAFRNH
TAF
KRNH 282344Z 2900/2924 16008KT P6SM SCT150
     FM290500 16003KT 6SM BR BKN060
     FM290900 00000KT 1/2SM FG VV002
     FM291300 VRB03KT P6SM SKC=

USA.gov is the U.S. government's official web portal to all federal, state and local government web resources and services.